sensor_id;sensor_type;location;lat;lon;timestamp;pressure;altitude;pressure_sealevel;temperature;humidity
8451;BME280;4262;50.980;13.892;2023-02-23T04:31:11;50292.69;;;-142.97;25.22
8451;BME280;4262;50.980;13.892;2023-02-23T04:33:37;50306.34;;;-142.97;24.18
8451;BME280;4262;50.980;13.892;2023-02-23T04:36:04;50277.09;;;-142.97;24.91
8451;BME280;4262;50.980;13.892;2023-02-23T04:38:31;50290.75;;;-142.97;25.24
8451;BME280;4262;50.980;13.892;2023-02-23T04:40:57;50306.34;;;-142.97;24.93
8451;BME280;4262;50.980;13.892;2023-02-23T04:43:24;50282.94;;;-142.97;25.12
8451;BME280;4262;50.980;13.892;2023-02-23T04:45:52;50298.53;;;-142.97;25.42
8451;BME280;4262;50.980;13.892;2023-02-23T04:48:20;50286.84;;;-142.97;24.76
8451;BME280;4262;50.980;13.892;2023-02-23T04:50:51;50267.34;;;-142.97;25.26
8451;BME280;4262;50.980;13.892;2023-02-23T04:53:18;50288.78;;;-142.97;25.16
8451;BME280;4262;50.980;13.892;2023-02-23T04:55:45;50263.44;;;-142.97;25.44
8451;BME280;4262;50.980;13.892;2023-02-23T04:58:12;50298.53;;;-142.97;24.96
8451;BME280;4262;50.980;13.892;2023-02-23T05:00:39;50282.94;;;-142.97;25.28
8451;BME280;4262;50.980;13.892;2023-02-23T05:03:06;50294.63;;;-142.97;24.72
8451;BME280;4262;50.980;13.892;2023-02-23T05:05:34;50263.44;;;-142.97;24.97
8451;BME280;4262;50.980;13.892;2023-02-23T05:08:01;50286.84;;;-142.97;24.86
8451;BME280;4262;50.980;13.892;2023-02-23T05:10:28;50253.69;;;-142.97;24.65
8451;BME280;4262;50.980;13.892;2023-02-23T05:12:56;50269.28;;;-142.97;24.84
8451;BME280;4262;50.980;13.892;2023-02-23T05:15:23;50310.25;;;-142.97;24.38
8451;BME280;4262;50.980;13.892;2023-02-23T05:17:49;50292.69;;;-142.97;24.43
8451;BME280;4262;50.980;13.892;2023-02-23T05:20:16;50279.03;;;-142.97;24.88
8451;BME280;4262;50.980;13.892;2023-02-23T05:22:45;50302.44;;;-142.97;24.76
8451;BME280;4262;50.980;13.892;2023-02-23T05:25:11;50245.91;;;-142.97;25.00
8451;BME280;4262;50.980;13.892;2023-02-23T05:27:39;50294.63;;;-142.97;25.57
8451;BME280;4262;50.980;13.892;2023-02-23T05:30:07;50249.81;;;-142.97;25.35
8451;BME280;4262;50.980;13.892;2023-02-23T05:32:34;50292.69;;;-142.97;25.38
8451;BME280;4262;50.980;13.892;2023-02-23T05:35:01;50282.94;;;-142.97;25.32
8451;BME280;4262;50.980;13.892;2023-02-23T05:37:28;50312.19;;;-142.97;25.23
8451;BME280;4262;50.980;13.892;2023-02-23T05:39:56;50290.75;;;-142.97;26.34
8451;BME280;4262;50.980;13.892;2023-02-23T05:42:23;50271.25;;;-142.97;25.94
8451;BME280;4262;50.980;13.892;2023-02-23T05:44:50;50320.00;;;-142.97;25.69
8451;BME280;4262;50.980;13.892;2023-02-23T05:47:17;50275.16;;;-142.97;25.75
8451;BME280;4262;50.980;13.892;2023-02-23T05:49:44;50277.09;;;-142.97;25.43
8451;BME280;4262;50.980;13.892;2023-02-23T05:52:11;50265.41;;;-142.97;25.59
8451;BME280;4262;50.980;13.892;2023-02-23T05:54:37;50284.91;;;-142.97;25.45
8451;BME280;4262;50.980;13.892;2023-02-23T05:57:05;50277.09;;;-142.97;24.84
8451;BME280;4262;50.980;13.892;2023-02-23T05:59:32;50286.84;;;-142.97;24.54
8451;BME280;4262;50.980;13.892;2023-02-23T06:01:59;50302.44;;;-142.97;24.82
8451;BME280;4262;50.980;13.892;2023-02-23T06:04:27;50281.00;;;-142.97;24.46
8451;BME280;4262;50.980;13.892;2023-02-23T06:06:53;50273.19;;;-142.97;24.42
8451;BME280;4262;50.980;13.892;2023-02-23T06:09:20;50284.91;;;-142.97;25.17
8451;BME280;4262;50.980;13.892;2023-02-23T06:11:47;50247.84;;;-142.97;25.29
8451;BME280;4262;50.980;13.892;2023-02-23T06:14:15;50286.84;;;-142.97;25.28
8451;BME280;4262;50.980;13.892;2023-02-23T06:16:41;50277.09;;;-142.97;25.03
8451;BME280;4262;50.980;13.892;2023-02-23T06:19:09;50288.78;;;-142.97;24.79
8451;BME280;4262;50.980;13.892;2023-02-23T06:21:36;50259.56;;;-142.97;24.69
8451;BME280;4262;50.980;13.892;2023-02-23T06:24:04;50298.53;;;-142.97;24.79
8451;BME280;4262;50.980;13.892;2023-02-23T06:26:31;50294.63;;;-142.97;24.96
8451;BME280;4262;50.980;13.892;2023-02-23T06:28:59;50271.25;;;-142.97;25.04
8451;BME280;4262;50.980;13.892;2023-02-23T06:31:27;50290.75;;;-142.97;25.33
8451;BME280;4262;50.980;13.892;2023-02-23T06:33:55;50267.34;;;-142.97;24.71
8451;BME280;4262;50.980;13.892;2023-02-23T06:36:21;50263.44;;;-142.97;24.94
8451;BME280;4262;50.980;13.892;2023-02-23T06:38:48;50261.50;;;-142.97;24.66
8451;BME280;4262;50.980;13.892;2023-02-23T06:41:16;50255.66;;;-142.97;24.87
8451;BME280;4262;50.980;13.892;2023-02-23T06:43:43;50261.50;;;-142.97;25.04
8451;BME280;4262;50.980;13.892;2023-02-23T06:46:09;50277.09;;;-142.97;24.77
8451;BME280;4262;50.980;13.892;2023-02-23T06:48:37;50263.44;;;-142.97;24.75
8451;BME280;4262;50.980;13.892;2023-02-23T06:51:05;50286.84;;;-142.97;24.66
8451;BME280;4262;50.980;13.892;2023-02-23T06:53:32;50286.84;;;-142.97;25.17
8451;BME280;4262;50.980;13.892;2023-02-23T06:56:01;50265.41;;;-142.97;24.51
8451;BME280;4262;50.980;13.892;2023-02-23T06:58:28;50261.50;;;-142.97;25.15
8451;BME280;4262;50.980;13.892;2023-02-23T07:00:55;50240.06;;;-142.97;24.85
8451;BME280;4262;50.980;13.892;2023-02-23T07:03:23;50245.91;;;-142.97;25.09
8451;BME280;4262;50.980;13.892;2023-02-23T07:05:51;50306.34;;;-142.97;24.96
8451;BME280;4262;50.980;13.892;2023-02-23T07:08:18;50267.34;;;-142.97;24.53
8451;BME280;4262;50.980;13.892;2023-02-23T07:10:45;50286.84;;;-142.97;24.38
8451;BME280;4262;50.980;13.892;2023-02-23T07:13:12;50282.94;;;-142.97;24.96
8451;BME280;4262;50.980;13.892;2023-02-23T07:15:39;50282.94;;;-142.97;24.81
8451;BME280;4262;50.980;13.892;2023-02-23T07:18:07;50259.56;;;-142.97;24.96
8451;BME280;4262;50.980;13.892;2023-02-23T07:20:33;50269.28;;;-142.97;24.87
8451;BME280;4262;50.980;13.892;2023-02-23T07:23:03;50240.06;;;-142.97;25.04
8451;BME280;4262;50.980;13.892;2023-02-23T07:25:30;50265.41;;;-142.97;24.89
8451;BME280;4262;50.980;13.892;2023-02-23T07:27:57;50238.09;;;-142.97;25.83
8451;BME280;4262;50.980;13.892;2023-02-23T07:30:24;50253.69;;;-142.97;25.62
8451;BME280;4262;50.980;13.892;2023-02-23T07:32:51;50275.16;;;-142.97;25.46
8451;BME280;4262;50.980;13.892;2023-02-23T07:35:19;50224.47;;;-142.97;25.25
8451;BME280;4262;50.980;13.892;2023-02-23T07:37:45;50275.16;;;-142.97;25.25
8451;BME280;4262;50.980;13.892;2023-02-23T07:40:14;50242.00;;;-142.97;24.76
8451;BME280;4262;50.980;13.892;2023-02-23T07:42:41;50269.28;;;-142.97;25.21
8451;BME280;4262;50.980;13.892;2023-02-23T07:45:09;50255.66;;;-142.97;24.96
8451;BME280;4262;50.980;13.892;2023-02-23T07:47:36;50275.16;;;-142.97;24.32
8451;BME280;4262;50.980;13.892;2023-02-23T07:50:05;50232.25;;;-142.97;25.04
8451;BME280;4262;50.980;13.892;2023-02-23T07:52:36;50238.09;;;-142.97;25.28
8451;BME280;4262;50.980;13.892;2023-02-23T07:55:04;50286.84;;;-142.97;24.84
8451;BME280;4262;50.980;13.892;2023-02-23T07:57:32;50275.16;;;-142.97;24.67
8451;BME280;4262;50.980;13.892;2023-02-23T08:00:00;50275.16;;;-142.97;24.86
8451;BME280;4262;50.980;13.892;2023-02-23T08:02:38;50251.75;;;-142.97;25.00
8451;BME280;4262;50.980;13.892;2023-02-23T08:05:05;50247.84;;;-142.97;24.89
8451;BME280;4262;50.980;13.892;2023-02-23T08:07:32;50247.84;;;-142.97;25.08
8451;BME280;4262;50.980;13.892;2023-02-23T08:09:59;50243.94;;;-142.97;25.06
8451;BME280;4262;50.980;13.892;2023-02-23T08:12:28;50236.16;;;-142.97;25.30
8451;BME280;4262;50.980;13.892;2023-02-23T08:14:55;50249.81;;;-142.97;24.59
8451;BME280;4262;50.980;13.892;2023-02-23T08:17:22;50251.75;;;-142.97;24.66
8451;BME280;4262;50.980;13.892;2023-02-23T08:19:49;50251.75;;;-142.97;24.72
8451;BME280;4262;50.980;13.892;2023-02-23T08:22:17;50255.66;;;-142.97;24.70
8451;BME280;4262;50.980;13.892;2023-02-23T08:24:44;50230.31;;;-142.97;24.36
8451;BME280;4262;50.980;13.892;2023-02-23T08:27:11;50282.94;;;-142.97;24.83
8451;BME280;4262;50.980;13.892;2023-02-23T08:29:38;50294.63;;;-142.97;24.14
8451;BME280;4262;50.980;13.892;2023-02-23T08:32:08;50269.28;;;-142.97;24.67
8451;BME280;4262;50.980;13.892;2023-02-23T08:34:36;50249.81;;;-142.97;24.65
8451;BME280;4262;50.980;13.892;2023-02-23T08:37:03;50267.34;;;-142.97;24.77
8451;BME280;4262;50.980;13.892;2023-02-23T08:39:30;50242.00;;;-142.97;24.85
8451;BME280;4262;50.980;13.892;2023-02-23T08:41:58;50263.44;;;-142.97;24.09
8451;BME280;4262;50.980;13.892;2023-02-23T08:44:26;50224.47;;;-142.97;24.43
8451;BME280;4262;50.980;13.892;2023-02-23T08:46:52;50259.56;;;-142.97;24.95
8451;BME280;4262;50.980;13.892;2023-02-23T08:49:21;50275.16;;;-142.97;24.07
8451;BME280;4262;50.980;13.892;2023-02-23T08:51:48;50286.84;;;-142.97;24.02
8451;BME280;4262;50.980;13.892;2023-02-23T08:54:19;50242.00;;;-142.97;24.26
8451;BME280;4262;50.980;13.892;2023-02-23T08:56:46;50247.84;;;-142.97;24.09
8451;BME280;4262;50.980;13.892;2023-02-23T08:59:13;50255.66;;;-142.97;24.12
8451;BME280;4262;50.980;13.892;2023-02-23T09:01:40;50257.59;;;-142.97;23.95
8451;BME280;4262;50.980;13.892;2023-02-23T09:04:07;50271.25;;;-142.97;23.96
8451;BME280;4262;50.980;13.892;2023-02-23T09:06:36;50238.09;;;-142.97;24.60
8451;BME280;4262;50.980;13.892;2023-02-23T09:09:03;50257.59;;;-142.97;24.19
8451;BME280;4262;50.980;13.892;2023-02-23T09:11:31;50234.19;;;-142.97;24.28
8451;BME280;4262;50.980;13.892;2023-02-23T09:14:00;50210.81;;;-142.97;24.27
8451;BME280;4262;50.980;13.892;2023-02-23T09:16:27;50236.16;;;-142.97;23.69
8451;BME280;4262;50.980;13.892;2023-02-23T09:18:54;50238.09;;;-142.97;24.42
8451;BME280;4262;50.980;13.892;2023-02-23T09:21:26;50273.19;;;-142.97;24.18
8451;BME280;4262;50.980;13.892;2023-02-23T09:23:57;50234.19;;;-142.97;24.02
8451;BME280;4262;50.980;13.892;2023-02-23T09:26:25;50245.91;;;-142.97;23.51
8451;BME280;4262;50.980;13.892;2023-02-23T09:28:53;50243.94;;;-142.97;23.80
8451;BME280;4262;50.980;13.892;2023-02-23T09:31:21;50242.00;;;-142.97;23.56
8451;BME280;4262;50.980;13.892;2023-02-23T09:33:49;50251.75;;;-142.97;24.44
8451;BME280;4262;50.980;13.892;2023-02-23T09:36:18;50222.50;;;-142.97;23.88
8451;BME280;4262;50.980;13.892;2023-02-23T09:38:47;50249.81;;;-142.97;23.90
8451;BME280;4262;50.980;13.892;2023-02-23T09:41:36;50220.56;;;-142.97;24.23
8451;BME280;4262;50.980;13.892;2023-02-23T09:44:11;50243.94;;;-142.97;23.91
8451;BME280;4262;50.980;13.892;2023-02-23T09:46:46;50249.81;;;-142.97;23.37
8451;BME280;4262;50.980;13.892;2023-02-23T09:49:17;50240.06;;;-142.97;23.51
8451;BME280;4262;50.980;13.892;2023-02-23T09:51:47;50236.16;;;-142.97;23.17
8451;BME280;4262;50.980;13.892;2023-02-23T09:54:21;50247.84;;;-142.97;22.99
8451;BME280;4262;50.980;13.892;2023-02-23T09:56:51;50249.81;;;-142.97;23.30
8451;BME280;4262;50.980;13.892;2023-02-23T09:59:21;50251.75;;;-142.97;23.81
8451;BME280;4262;50.980;13.892;2023-02-23T10:01:55;50247.84;;;-142.97;23.01
8451;BME280;4262;50.980;13.892;2023-02-23T10:04:26;50210.81;;;-142.97;23.16
8451;BME280;4262;50.980;13.892;2023-02-23T10:06:58;50230.31;;;-142.97;22.83
8451;BME280;4262;50.980;13.892;2023-02-23T10:09:43;50199.13;;;-142.97;22.64
8451;BME280;4262;50.980;13.892;2023-02-23T10:12:21;50214.72;;;-142.97;22.79
8451;BME280;4262;50.980;13.892;2023-02-23T10:15:03;50230.31;;;-142.97;22.31
8451;BME280;4262;50.980;13.892;2023-02-23T10:17:38;50199.13;;;-142.97;22.44
8451;BME280;4262;50.980;13.892;2023-02-23T10:20:17;50203.00;;;-142.97;22.20
8451;BME280;4262;50.980;13.892;2023-02-23T10:22:47;50210.81;;;-142.97;21.61
8451;BME280;4262;50.980;13.892;2023-02-23T10:25:19;50185.47;;;-142.97;21.72
8451;BME280;4262;50.980;13.892;2023-02-23T10:27:49;50115.28;;;-142.97;21.61
8451;BME280;4262;50.980;13.892;2023-02-23T10:30:18;50126.97;;;-142.97;21.73
8451;BME280;4262;50.980;13.892;2023-02-23T10:32:52;50154.28;;;-142.97;21.32
8451;BME280;4262;50.980;13.892;2023-02-23T10:35:21;50113.34;;;-142.97;21.34
8451;BME280;4262;50.980;13.892;2023-02-23T10:37:50;50173.75;;;-142.97;22.05
8451;BME280;4262;50.980;13.892;2023-02-23T10:40:20;50113.34;;;-142.97;21.85
8451;BME280;4262;50.980;13.892;2023-02-23T10:42:51;50160.13;;;-142.97;21.94
8451;BME280;4262;50.980;13.892;2023-02-23T10:45:21;50208.84;;;-142.97;21.50
8451;BME280;4262;50.980;13.892;2023-02-23T10:47:54;50183.50;;;-142.97;21.70
8451;BME280;4262;50.980;13.892;2023-02-23T10:50:23;50204.97;;;-142.97;22.29
8451;BME280;4262;50.980;13.892;2023-02-23T10:52:55;50132.81;;;-142.97;21.74
8451;BME280;4262;50.980;13.892;2023-02-23T10:55:26;50126.97;;;-142.97;21.30
8451;BME280;4262;50.980;13.892;2023-02-23T10:58:03;50134.78;;;-142.97;20.72
8451;BME280;4262;50.980;13.892;2023-02-23T11:00:33;50128.94;;;-142.97;21.32
8451;BME280;4262;50.980;13.892;2023-02-23T11:03:01;50130.88;;;-142.97;21.53
8451;BME280;4262;50.980;13.892;2023-02-23T11:05:35;50148.41;;;-142.97;21.55
8451;BME280;4262;50.980;13.892;2023-02-23T11:08:18;50107.47;;;-142.97;21.02
8451;BME280;4262;50.980;13.892;2023-02-23T11:11:03;50165.97;;;-142.97;21.26
8451;BME280;4262;50.980;13.892;2023-02-23T11:13:43;50109.44;;;-142.97;20.94
8451;BME280;4262;50.980;13.892;2023-02-23T11:16:13;50095.78;;;-142.97;20.83
8451;BME280;4262;50.980;13.892;2023-02-23T11:18:41;50111.38;;;-142.97;20.71
8451;BME280;4262;50.980;13.892;2023-02-23T11:21:11;50109.44;;;-142.97;20.52
8451;BME280;4262;50.980;13.892;2023-02-23T11:23:40;50138.69;;;-142.97;20.76
8451;BME280;4262;50.980;13.892;2023-02-23T11:26:22;50134.78;;;-142.97;20.52
8451;BME280;4262;50.980;13.892;2023-02-23T11:28:56;50113.34;;;-142.97;20.57
8451;BME280;4262;50.980;13.892;2023-02-23T11:31:29;50125.03;;;-142.97;20.52
8451;BME280;4262;50.980;13.892;2023-02-23T11:33:58;50074.34;;;-142.97;20.42
8451;BME280;4262;50.980;13.892;2023-02-23T11:36:27;50058.75;;;-142.97;20.28
8451;BME280;4262;50.980;13.892;2023-02-23T11:39:02;50060.69;;;-142.97;20.45
8451;BME280;4262;50.980;13.892;2023-02-23T11:41:31;50072.38;;;-142.97;20.09
8451;BME280;4262;50.980;13.892;2023-02-23T11:44:01;50089.94;;;-142.97;20.29
8451;BME280;4262;50.980;13.892;2023-02-23T11:46:30;50078.25;;;-142.97;20.50
8451;BME280;4262;50.980;13.892;2023-02-23T11:49:00;50076.28;;;-142.97;20.07
8451;BME280;4262;50.980;13.892;2023-02-23T11:51:30;50074.34;;;-142.97;20.50
8451;BME280;4262;50.980;13.892;2023-02-23T11:53:57;50089.94;;;-142.97;20.17
8451;BME280;4262;50.980;13.892;2023-02-23T11:56:27;50101.63;;;-142.97;20.38
8451;BME280;4262;50.980;13.892;2023-02-23T11:58:57;50103.59;;;-142.97;19.92
8451;BME280;4262;50.980;13.892;2023-02-23T12:01:37;50103.59;;;-142.97;20.59
8451;BME280;4262;50.980;13.892;2023-02-23T12:04:22;50115.28;;;-142.97;20.33
8451;BME280;4262;50.980;13.892;2023-02-23T12:07:19;50107.47;;;-142.97;20.95
8451;BME280;4262;50.980;13.892;2023-02-23T12:09:37;50121.13;;;-142.97;20.66
8451;BME280;4262;50.980;13.892;2023-02-23T12:12:09;50105.53;;;-142.97;20.93
8451;BME280;4262;50.980;13.892;2023-02-23T12:14:40;50125.03;;;-142.97;20.45
8451;BME280;4262;50.980;13.892;2023-02-23T12:17:16;50152.31;;;-142.97;20.90
8451;BME280;4262;50.980;13.892;2023-02-23T12:19:46;50146.47;;;-142.97;20.98
8451;BME280;4262;50.980;13.892;2023-02-23T12:22:17;50148.41;;;-142.97;21.14
8451;BME280;4262;50.980;13.892;2023-02-23T12:24:51;50181.56;;;-142.97;20.89
8451;BME280;4262;50.980;13.892;2023-02-23T12:27:21;50169.88;;;-142.97;21.29
8451;BME280;4262;50.980;13.892;2023-02-23T12:30:02;50136.72;;;-142.97;20.59
8451;BME280;4262;50.980;13.892;2023-02-23T12:32:40;50109.44;;;-142.97;20.74
8451;BME280;4262;50.980;13.892;2023-02-23T12:35:15;50123.06;;;-142.97;20.52
8451;BME280;4262;50.980;13.892;2023-02-23T12:37:47;50117.22;;;-142.97;20.41
8451;BME280;4262;50.980;13.892;2023-02-23T12:40:18;50113.34;;;-142.97;20.03
8451;BME280;4262;50.980;13.892;2023-02-23T12:42:53;50121.13;;;-142.97;20.19
8451;BME280;4262;50.980;13.892;2023-02-23T12:45:27;50130.88;;;-142.97;21.15
8451;BME280;4262;50.980;13.892;2023-02-23T12:48:02;50148.41;;;-142.97;20.66
8451;BME280;4262;50.980;13.892;2023-02-23T12:50:34;50109.44;;;-142.97;21.19
8451;BME280;4262;50.980;13.892;2023-02-23T12:53:06;50115.28;;;-142.97;21.35
8451;BME280;4262;50.980;13.892;2023-02-23T12:55:42;50134.78;;;-142.97;21.46
8451;BME280;4262;50.980;13.892;2023-02-23T12:58:19;50097.72;;;-142.97;20.83
8451;BME280;4262;50.980;13.892;2023-02-23T13:00:55;50158.16;;;-142.97;20.31
8451;BME280;4262;50.980;13.892;2023-02-23T13:03:43;50123.06;;;-142.97;20.70
8451;BME280;4262;50.980;13.892;2023-02-23T13:06:19;50158.16;;;-142.97;20.38
8451;BME280;4262;50.980;13.892;2023-02-23T13:09:07;50148.41;;;-142.97;20.53
8451;BME280;4262;50.980;13.892;2023-02-23T13:11:48;50125.03;;;-142.97;20.67
8451;BME280;4262;50.980;13.892;2023-02-23T13:14:26;50130.88;;;-142.97;20.57
8451;BME280;4262;50.980;13.892;2023-02-23T13:16:59;50128.94;;;-142.97;20.28
8451;BME280;4262;50.980;13.892;2023-02-23T13:19:33;50132.81;;;-142.97;20.88
8451;BME280;4262;50.980;13.892;2023-02-23T13:22:16;50101.63;;;-142.97;20.58
8451;BME280;4262;50.980;13.892;2023-02-23T13:24:52;50148.41;;;-142.97;20.43
8451;BME280;4262;50.980;13.892;2023-02-23T13:27:24;50138.69;;;-142.97;20.76
8451;BME280;4262;50.980;13.892;2023-02-23T13:29:53;50140.63;;;-142.97;20.49
8451;BME280;4262;50.980;13.892;2023-02-23T13:32:25;50154.28;;;-142.97;21.31
8451;BME280;4262;50.980;13.892;2023-02-23T13:34:56;50165.97;;;-142.97;20.52
8451;BME280;4262;50.980;13.892;2023-02-23T13:37:27;50160.13;;;-142.97;20.62
8451;BME280;4262;50.980;13.892;2023-02-23T13:42:41;50232.25;;;-142.97;21.22
8451;BME280;4262;50.980;13.892;2023-02-23T13:45:25;50199.13;;;-142.97;21.43
8451;BME280;4262;50.980;13.892;2023-02-23T13:47:57;50236.16;;;-142.97;21.60
8451;BME280;4262;50.980;13.892;2023-02-23T13:50:34;50234.19;;;-142.97;21.82
8451;BME280;4262;50.980;13.892;2023-02-23T13:53:06;50222.50;;;-142.97;22.08
8451;BME280;4262;50.980;13.892;2023-02-23T13:55:44;50247.84;;;-142.97;21.89
8451;BME280;4262;50.980;13.892;2023-02-23T13:58:18;50234.19;;;-142.97;22.18
8451;BME280;4262;50.980;13.892;2023-02-23T14:00:52;50210.81;;;-142.97;21.97
8451;BME280;4262;50.980;13.892;2023-02-23T14:03:22;50269.28;;;-142.97;21.87
8451;BME280;4262;50.980;13.892;2023-02-23T14:05:55;50226.41;;;-142.97;21.44
8451;BME280;4262;50.980;13.892;2023-02-23T14:08:30;50245.91;;;-142.97;21.37
8451;BME280;4262;50.980;13.892;2023-02-23T14:11:00;50220.56;;;-142.97;21.49
8451;BME280;4262;50.980;13.892;2023-02-23T14:13:30;50242.00;;;-142.97;21.42
8451;BME280;4262;50.980;13.892;2023-02-23T14:16:09;50242.00;;;-142.97;21.49
8451;BME280;4262;50.980;13.892;2023-02-23T14:18:53;50220.56;;;-142.97;21.53
8451;BME280;4262;50.980;13.892;2023-02-23T14:21:27;50193.25;;;-142.97;21.82
8451;BME280;4262;50.980;13.892;2023-02-23T14:24:03;50216.66;;;-142.97;21.63
8451;BME280;4262;50.980;13.892;2023-02-23T14:26:42;50214.72;;;-142.97;21.89
8451;BME280;4262;50.980;13.892;2023-02-23T14:29:23;50238.09;;;-142.97;22.33
8451;BME280;4262;50.980;13.892;2023-02-23T14:32:02;50243.94;;;-142.97;22.33
8451;BME280;4262;50.980;13.892;2023-02-23T14:34:49;50269.28;;;-142.97;22.67
8451;BME280;4262;50.980;13.892;2023-02-23T14:37:30;50203.00;;;-142.97;22.23
8451;BME280;4262;50.980;13.892;2023-02-23T14:40:03;50214.72;;;-142.97;22.11
8451;BME280;4262;50.980;13.892;2023-02-23T14:42:32;50240.06;;;-142.97;22.31
8451;BME280;4262;50.980;13.892;2023-02-23T14:45:03;50251.75;;;-142.97;22.45
8451;BME280;4262;50.980;13.892;2023-02-23T14:47:40;50218.59;;;-142.97;22.24
8451;BME280;4262;50.980;13.892;2023-02-23T14:50:11;50212.75;;;-142.97;22.69
8451;BME280;4262;50.980;13.892;2023-02-23T14:52:44;50247.84;;;-142.97;22.16
8451;BME280;4262;50.980;13.892;2023-02-23T14:55:21;50242.00;;;-142.97;22.69
8451;BME280;4262;50.980;13.892;2023-02-23T14:57:48;50232.25;;;-142.97;22.81
8451;BME280;4262;50.980;13.892;2023-02-23T15:00:19;50238.09;;;-142.97;22.69
8451;BME280;4262;50.980;13.892;2023-02-23T15:02:56;50269.28;;;-142.97;22.55
8451;BME280;4262;50.980;13.892;2023-02-23T15:05:24;50251.75;;;-142.97;22.38
8451;BME280;4262;50.980;13.892;2023-02-23T15:07:57;50290.75;;;-142.97;22.49
8451;BME280;4262;50.980;13.892;2023-02-23T15:10:28;50238.09;;;-142.97;22.31
8451;BME280;4262;50.980;13.892;2023-02-23T15:12:56;50247.84;;;-142.97;22.38
8451;BME280;4262;50.980;13.892;2023-02-23T15:15:25;50263.44;;;-142.97;22.06
8451;BME280;4262;50.980;13.892;2023-02-23T15:17:54;50218.59;;;-142.97;22.21
8451;BME280;4262;50.980;13.892;2023-02-23T15:20:23;50234.19;;;-142.97;22.51
8451;BME280;4262;50.980;13.892;2023-02-23T15:22:59;50236.16;;;-142.97;22.64
8451;BME280;4262;50.980;13.892;2023-02-23T15:25:34;50243.94;;;-142.97;22.40
8451;BME280;4262;50.980;13.892;2023-02-23T15:28:19;50245.91;;;-142.97;22.33
8451;BME280;4262;50.980;13.892;2023-02-23T15:30:48;50220.56;;;-142.97;22.60
8451;BME280;4262;50.980;13.892;2023-02-23T15:33:16;50224.47;;;-142.97;22.57
8451;BME280;4262;50.980;13.892;2023-02-23T15:35:51;50206.91;;;-142.97;22.91
8451;BME280;4262;50.980;13.892;2023-02-23T15:38:22;50249.81;;;-142.97;22.83
8451;BME280;4262;50.980;13.892;2023-02-23T15:40:54;50245.91;;;-142.97;22.84
8451;BME280;4262;50.980;13.892;2023-02-23T15:43:22;50224.47;;;-142.97;22.93
8451;BME280;4262;50.980;13.892;2023-02-23T15:45:51;50220.56;;;-142.97;23.07
8451;BME280;4262;50.980;13.892;2023-02-23T15:48:20;50245.91;;;-142.97;23.41
8451;BME280;4262;50.980;13.892;2023-02-23T15:50:49;50212.75;;;-142.97;23.92
8451;BME280;4262;50.980;13.892;2023-02-23T15:53:26;50255.66;;;-142.97;24.31
8451;BME280;4262;50.980;13.892;2023-02-23T15:56:01;50242.00;;;-142.97;24.70
8451;BME280;4262;50.980;13.892;2023-02-23T15:58:29;50290.75;;;-142.97;24.47
8451;BME280;4262;50.980;13.892;2023-02-23T16:00:59;50255.66;;;-142.97;24.80
8451;BME280;4262;50.980;13.892;2023-02-23T16:03:32;50240.06;;;-142.97;24.63
8451;BME280;4262;50.980;13.892;2023-02-23T16:06:02;50245.91;;;-142.97;25.31
8451;BME280;4262;50.980;13.892;2023-02-23T16:08:31;50232.25;;;-142.97;25.59
8451;BME280;4262;50.980;13.892;2023-02-23T16:11:06;50273.19;;;-142.97;25.13
8451;BME280;4262;50.980;13.892;2023-02-23T16:13:36;50265.41;;;-142.97;25.10
8451;BME280;4262;50.980;13.892;2023-02-23T16:16:04;50257.59;;;-142.97;25.08
8451;BME280;4262;50.980;13.892;2023-02-23T16:18:38;50259.56;;;-142.97;24.99
8451;BME280;4262;50.980;13.892;2023-02-23T16:21:06;50240.06;;;-142.97;25.53
8451;BME280;4262;50.980;13.892;2023-02-23T16:23:42;50273.19;;;-142.97;25.26
8451;BME280;4262;50.980;13.892;2023-02-23T16:26:17;50243.94;;;-142.97;25.07
8451;BME280;4262;50.980;13.892;2023-02-23T16:28:54;50269.28;;;-142.97;24.93
8451;BME280;4262;50.980;13.892;2023-02-23T16:31:23;50238.09;;;-142.97;24.94
8451;BME280;4262;50.980;13.892;2023-02-23T16:33:54;50253.69;;;-142.97;24.94
8451;BME280;4262;50.980;13.892;2023-02-23T16:36:23;50251.75;;;-142.97;25.33
8451;BME280;4262;50.980;13.892;2023-02-23T16:38:57;50251.75;;;-142.97;25.21
8451;BME280;4262;50.980;13.892;2023-02-23T16:41:27;50290.75;;;-142.97;24.93
8451;BME280;4262;50.980;13.892;2023-02-23T16:43:57;50257.59;;;-142.97;25.36
8451;BME280;4262;50.980;13.892;2023-02-23T16:46:27;50257.59;;;-142.97;25.18
8451;BME280;4262;50.980;13.892;2023-02-23T16:48:56;50249.81;;;-142.97;24.75
8451;BME280;4262;50.980;13.892;2023-02-23T16:51:30;50226.41;;;-142.97;24.98
8451;BME280;4262;50.980;13.892;2023-02-23T16:54:00;50263.44;;;-142.97;24.63
8451;BME280;4262;50.980;13.892;2023-02-23T16:56:29;50281.00;;;-142.97;24.70
8451;BME280;4262;50.980;13.892;2023-02-23T16:59:00;50282.94;;;-142.97;24.84
8451;BME280;4262;50.980;13.892;2023-02-23T17:01:27;50273.19;;;-142.97;24.80
8451;BME280;4262;50.980;13.892;2023-02-23T17:03:54;50265.41;;;-142.97;24.79
8451;BME280;4262;50.980;13.892;2023-02-23T17:06:23;50269.28;;;-142.97;24.80
8451;BME280;4262;50.980;13.892;2023-02-23T17:08:50;50261.50;;;-142.97;24.91
8451;BME280;4262;50.980;13.892;2023-02-23T17:11:20;50265.41;;;-142.97;24.66
8451;BME280;4262;50.980;13.892;2023-02-23T17:13:46;50247.84;;;-142.97;24.48
8451;BME280;4262;50.980;13.892;2023-02-23T17:16:13;50242.00;;;-142.97;24.92
8451;BME280;4262;50.980;13.892;2023-02-23T17:18:40;50245.91;;;-142.97;24.91
8451;BME280;4262;50.980;13.892;2023-02-23T17:21:11;50251.75;;;-142.97;25.07
8451;BME280;4262;50.980;13.892;2023-02-23T17:23:39;50251.75;;;-142.97;24.87
8451;BME280;4262;50.980;13.892;2023-02-23T17:26:17;50271.25;;;-142.97;24.88
8451;BME280;4262;50.980;13.892;2023-02-23T17:28:45;50296.59;;;-142.97;25.27
8451;BME280;4262;50.980;13.892;2023-02-23T17:31:13;50259.56;;;-142.97;25.28
8451;BME280;4262;50.980;13.892;2023-02-23T17:33:41;50232.25;;;-142.97;25.47
8451;BME280;4262;50.980;13.892;2023-02-23T17:36:10;50265.41;;;-142.97;25.42
8451;BME280;4262;50.980;13.892;2023-02-23T17:38:38;50255.66;;;-142.97;25.35
8451;BME280;4262;50.980;13.892;2023-02-23T17:41:12;50249.81;;;-142.97;25.18